Time;durP1;ratioP1;P1;durP2;ratioP2;P2;SDS_P1;SDS_P2;PMS_P1;PMS_P2;Temp;Humidity;BMP_temperature;BMP_pressure;BME280_temperature;BME280_humidity;BME280_pressure;Samples;Min_cycle;Max_cycle;Signal;HPM_P1;HPM_P2
2023/02/20 00:02:22;;;;;;;6.23;4.87;;;4.90;99.90;;;-141.84;79.49;18868.91;5052943;28;20221;-49
2023/02/20 00:04:50;;;;;;;5.97;4.87;;;4.80;99.90;;;-141.84;80.25;18838.44;5052682;28;20274;-51
2023/02/20 00:07:18;;;;;;;6.03;4.70;;;4.70;99.90;;;-141.84;81.01;18854.69;5052908;28;20228;-52
2023/02/20 00:09:46;;;;;;;6.13;5.00;;;4.60;99.90;;;-141.84;81.35;18838.44;5052620;28;20230;-50
2023/02/20 00:12:14;;;;;;;5.70;4.97;;;4.50;99.90;;;-141.84;81.59;18818.09;5052816;28;20263;-54
2023/02/20 00:14:42;;;;;;;6.13;5.10;;;4.50;99.90;;;-141.84;81.54;18824.22;5053196;28;20567;-50
2023/02/20 00:17:11;;;;;;;5.57;5.00;;;4.50;99.90;;;-141.84;81.59;18832.34;5051861;28;20264;-52
2023/02/20 00:19:40;;;;;;;7.87;6.20;;;4.50;99.90;;;-141.84;81.11;18830.31;5052491;28;20240;-54
2023/02/20 00:22:08;;;;;;;11.43;10.20;;;4.60;99.90;;;-141.84;81.13;18850.63;5052135;28;20231;-54
2023/02/20 00:24:36;;;;;;;16.23;14.53;;;4.60;99.90;;;-141.84;81.21;18826.25;5052370;28;20240;-53
2023/02/20 00:27:04;;;;;;;13.80;12.53;;;4.60;99.90;;;-141.84;81.30;18832.34;5052165;28;20692;-55
2023/02/20 00:29:33;;;;;;;11.40;10.30;;;4.70;99.90;;;-141.84;81.15;18844.53;5052929;28;20210;-51
2023/02/20 00:32:02;;;;;;;10.73;9.33;;;4.70;99.90;;;-141.84;81.15;18822.19;5051876;28;20717;-54
2023/02/20 00:34:30;;;;;;;9.47;8.57;;;4.70;99.90;;;-141.84;81.34;18814.03;5052129;28;20235;-51
2023/02/20 00:36:59;;;;;;;9.00;8.00;;;4.70;99.90;;;-141.84;81.31;18828.28;5051909;28;20615;-53
2023/02/20 00:39:28;;;;;;;8.27;7.57;;;4.70;99.90;;;-141.84;81.32;18812.00;5052005;28;20229;-54
2023/02/20 00:41:57;;;;;;;7.10;6.50;;;4.70;99.90;;;-141.84;81.27;18822.19;5051978;28;20221;-54
2023/02/20 00:44:26;;;;;;;7.83;6.27;;;4.70;99.90;;;-141.84;81.38;18850.63;5052281;28;20579;-50
2023/02/20 00:46:54;;;;;;;8.37;6.30;;;4.80;99.90;;;-141.84;81.63;18789.66;5048545;28;20232;-51
2023/02/20 00:49:22;;;;;;;6.60;5.90;;;4.80;99.90;;;-141.84;81.52;18826.25;5032034;28;20324;-51
2023/02/20 00:51:50;;;;;;;5.97;5.37;;;4.80;99.90;;;-141.84;81.81;18826.25;5032015;28;20391;-52
2023/02/20 00:54:20;;;;;;;5.10;4.60;;;4.80;99.90;;;-141.84;81.59;18834.38;5032314;28;20230;-63
2023/02/20 00:56:48;;;;;;;6.83;5.20;;;4.80;99.90;;;-141.84;81.25;18832.34;5032053;28;20213;-62
2023/02/20 00:59:16;;;;;;;6.67;5.63;;;4.80;99.90;;;-141.84;81.50;18826.25;5032409;28;20254;-63
2023/02/20 01:01:44;;;;;;;7.43;5.90;;;4.90;99.90;;;-141.84;81.56;18818.09;5031494;28;20252;-64
2023/02/20 01:04:13;;;;;;;6.60;5.23;;;4.80;99.90;;;-141.84;81.73;18822.19;5031891;28;20344;-62
2023/02/20 01:06:41;;;;;;;6.07;5.47;;;4.90;99.90;;;-141.84;81.68;18814.03;5030601;28;20480;-63
2023/02/20 01:09:09;;;;;;;6.50;5.80;;;4.90;99.90;;;-141.84;81.52;18834.38;5031826;28;20231;-63
2023/02/20 01:11:39;;;;;;;6.53;5.90;;;4.90;99.90;;;-141.84;81.55;18814.03;5031928;28;20209;-63
2023/02/20 01:14:07;;;;;;;6.07;5.30;;;4.90;99.90;;;-141.84;82.01;18822.19;5031483;28;20229;-62
2023/02/20 01:16:35;;;;;;;6.83;5.17;;;5.00;99.90;;;-141.84;82.03;18789.66;5031100;28;20225;-62
2023/02/20 01:19:03;;;;;;;7.10;5.10;;;5.00;99.90;;;-141.84;82.13;18826.25;5031040;28;20662;-64
2023/02/20 01:21:31;;;;;;;6.23;5.63;;;5.00;99.90;;;-141.84;82.30;18822.19;5031777;28;20230;-63
2023/02/20 01:23:59;;;;;;;7.33;5.80;;;5.10;99.90;;;-141.84;82.25;18854.69;5031713;28;20229;-62
2023/02/20 01:26:28;;;;;;;7.07;6.17;;;5.10;99.90;;;-141.84;82.07;18832.34;5032045;28;20208;-62
2023/02/20 01:28:57;;;;;;;7.27;5.90;;;5.10;99.90;;;-141.84;81.96;18805.91;5031193;28;20234;-62
2023/02/20 01:31:25;;;;;;;7.93;5.60;;;5.20;99.90;;;-141.84;80.81;18860.78;5031358;28;20222;-62
2023/02/20 01:33:54;;;;;;;5.47;4.87;;;5.20;99.90;;;-141.84;80.80;18832.34;5031381;28;20241;-63
2023/02/20 01:36:22;;;;;;;5.60;5.07;;;5.20;99.90;;;-141.84;81.08;18856.72;5031172;28;20226;-63
2023/02/20 01:38:50;;;;;;;5.40;4.90;;;5.30;99.90;;;-141.84;80.73;18838.44;5031295;28;20202;-62
2023/02/20 01:41:19;;;;;;;6.80;5.50;;;5.30;99.90;;;-141.84;80.64;18844.53;5031493;28;20610;-62
2023/02/20 01:43:47;;;;;;;7.13;6.43;;;5.40;99.90;;;-141.84;80.09;18889.22;5030851;28;20593;-62
2023/02/20 01:49:28;;;;;;;5.53;5.03;;;5.50;99.90;;;-141.84;81.25;18844.53;5061606;27;21076;-63
2023/02/20 01:52:07;;;;;;;6.40;5.30;;;5.50;99.90;;;-141.84;81.72;18846.56;5026668;28;20221;-63
2023/02/20 01:54:40;;;;;;;6.17;5.50;;;5.50;99.90;;;-141.84;81.11;18860.78;5026599;28;20257;-63
2023/02/20 01:57:18;;;;;;;6.10;5.37;;;5.50;99.90;;;-141.84;81.17;18854.69;5026790;28;20602;-63
2023/02/20 01:59:49;;;;;;;5.33;4.80;;;5.50;99.90;;;-141.84;81.57;18844.53;5026695;28;20536;-63
2023/02/20 02:02:19;;;;;;;5.70;4.80;;;5.60;99.90;;;-141.84;82.08;18814.03;5026613;28;20554;-62
2023/02/20 02:04:50;;;;;;;6.33;5.70;;;5.60;99.90;;;-141.84;81.67;18824.22;5026133;28;20237;-62
2023/02/20 02:07:18;;;;;;;7.23;6.43;;;5.60;99.90;;;-141.84;81.80;18818.09;5026145;28;20615;-63
2023/02/20 02:09:54;;;;;;;7.93;7.13;;;5.60;99.90;;;-141.84;82.30;18858.75;5026092;28;20236;-63
2023/02/20 02:12:23;;;;;;;9.37;8.37;;;5.60;99.90;;;-141.84;82.43;18834.38;5026496;28;20233;-64
2023/02/20 02:14:52;;;;;;;8.43;7.50;;;5.60;99.90;;;-141.84;82.83;18822.19;5026151;28;20206;-62
2023/02/20 02:18:00;;;;;;;9.70;8.70;;;5.60;99.90;;;-141.84;82.77;18858.75;5026508;28;20216;-63
2023/02/20 02:21:20;;;;;;;6.80;6.10;;;5.60;99.90;;;-141.84;82.67;18814.03;5011147;28;20580;-64
2023/02/20 02:24:51;;;;;;;6.10;5.10;;;5.60;99.90;;;-141.84;81.61;18822.19;5015506;28;20238;-62
2023/02/20 02:28:27;;;;;;;5.67;4.47;;;5.70;99.90;;;-141.84;82.00;18820.16;5021602;28;20237;-63
2023/02/20 02:31:56;;;;;;;5.03;4.40;;;5.70;99.90;;;-141.84;82.10;18858.75;5006223;28;20229;-62
2023/02/20 02:35:01;;;;;;;5.60;4.60;;;5.70;99.90;;;-141.84;82.92;18809.97;5005936;28;20273;-63
2023/02/20 02:37:40;;;;;;;4.93;4.20;;;5.70;99.90;;;-141.84;81.81;18850.63;4996140;28;20230;-62
2023/02/20 02:40:24;;;;;;;4.93;4.23;;;5.70;99.90;;;-141.84;81.63;18822.19;5005837;28;20230;-63
2023/02/20 02:43:07;;;;;;;5.27;4.03;;;5.80;99.90;;;-141.84;81.92;18838.44;5005982;28;20227;-62
2023/02/20 02:45:45;;;;;;;5.90;4.00;;;5.80;99.90;;;-141.84;82.19;18842.50;5006136;28;20237;-61
2023/02/20 02:48:24;;;;;;;4.70;4.20;;;5.80;99.90;;;-141.84;82.09;18818.09;5005070;28;20770;-62
2023/02/20 02:50:58;;;;;;;5.10;4.40;;;5.80;99.90;;;-141.84;81.75;18838.44;5005891;28;20286;-63
2023/02/20 02:53:27;;;;;;;4.93;4.27;;;5.90;99.90;;;-141.84;82.03;18836.41;5006289;28;20190;-63
2023/02/20 02:55:55;;;;;;;5.63;4.13;;;5.90;99.90;;;-141.84;81.75;18852.66;5005885;28;20238;-63
2023/02/20 02:58:24;;;;;;;4.30;3.90;;;5.90;99.90;;;-141.84;81.65;18868.91;5005182;28;20227;-63
2023/02/20 03:01:00;;;;;;;4.80;4.30;;;6.00;99.90;;;-141.84;82.14;18893.28;4992229;28;20234;-62
2023/02/20 03:03:36;;;;;;;5.30;4.20;;;6.00;99.90;;;-141.84;82.14;18850.63;4992195;28;20253;-63
2023/02/20 03:06:10;;;;;;;4.53;3.77;;;6.00;99.90;;;-141.84;81.56;18854.69;4992202;28;20199;-63
2023/02/20 03:08:48;;;;;;;4.57;4.03;;;6.10;99.90;;;-141.84;82.21;18836.41;4992545;28;20702;-63
2023/02/20 03:11:21;;;;;;;5.63;4.30;;;6.00;99.90;;;-141.84;81.90;18868.91;5011933;28;20708;-62
2023/02/20 03:16:51;;;;;;;5.90;5.30;;;6.10;99.90;;;-141.84;81.66;18866.88;5011628;28;20231;-62
2023/02/20 03:19:27;;;;;;;5.10;4.40;;;6.10;99.90;;;-141.84;82.24;18799.81;5011547;28;20713;-62
2023/02/20 03:21:58;;;;;;;6.27;4.77;;;6.20;99.90;;;-141.84;82.94;18844.53;5011775;28;20617;-63
2023/02/20 03:24:53;;;;;;;6.03;4.67;;;6.10;99.90;;;-141.84;83.08;18830.31;5011589;28;20222;-64
2023/02/20 03:27:25;;;;;;;5.63;4.37;;;6.10;99.90;;;-141.84;82.82;18842.50;5011874;28;20278;-62
2023/02/20 03:29:59;;;;;;;6.30;4.80;;;6.10;99.90;;;-141.84;82.62;18870.94;5011474;28;20519;-62
2023/02/20 03:43:48;;;;;;;6.53;5.57;;;6.20;99.90;;;-141.84;81.23;18866.88;4991676;28;20242;-63
2023/02/20 03:46:22;;;;;;;6.67;5.67;;;6.20;99.90;;;-141.84;80.34;18879.06;4991767;28;20235;-62
2023/02/20 03:48:55;;;;;;;8.33;6.43;;;6.30;99.90;;;-141.84;79.58;18883.13;4991102;28;20238;-64
2023/02/20 03:51:24;;;;;;;7.00;5.93;;;6.30;99.90;;;-141.84;79.18;18879.06;4991708;28;20223;-63
2023/02/20 03:53:53;;;;;;;8.97;6.90;;;6.40;99.90;;;-141.84;78.46;18917.66;4991409;28;20216;-63
2023/02/20 03:56:28;;;;;;;8.57;6.77;;;6.40;99.90;;;-141.84;78.21;18885.16;4992034;28;20218;-63
2023/02/20 03:59:04;;;;;;;7.67;6.70;;;6.40;99.90;;;-141.84;77.07;18938.00;4991319;28;20231;-63
2023/02/20 04:01:37;;;;;;;8.33;7.13;;;6.50;99.90;;;-141.84;76.92;18885.16;4991088;28;20600;-63
2023/02/20 04:04:09;;;;;;;8.03;6.43;;;6.50;99.90;;;-141.84;76.25;18958.31;4991177;28;20278;-63
2023/02/20 04:06:41;;;;;;;9.37;7.53;;;6.50;99.90;;;-141.84;74.98;18980.66;4991160;28;20228;-63
2023/02/20 04:09:16;;;;;;;9.10;7.53;;;6.60;99.90;;;-141.84;74.63;18929.88;4991059;28;20231;-63
2023/02/20 04:11:54;;;;;;;10.40;8.00;;;6.60;99.90;;;-141.84;73.71;18960.34;4990645;28;20563;-63
2023/02/20 04:14:27;;;;;;;10.40;7.33;;;6.60;99.90;;;-141.84;73.59;18968.47;4991462;28;20211;-64
2023/02/20 04:17:05;;;;;;;10.53;8.40;;;6.70;99.90;;;-141.84;73.13;18972.53;5007834;28;20257;-63
2023/02/20 04:19:34;;;;;;;11.33;8.43;;;6.70;99.90;;;-141.84;73.16;18964.41;4995914;28;20219;-63
2023/02/20 04:22:09;;;;;;;11.50;8.27;;;6.70;99.90;;;-141.84;73.33;18946.13;4990896;28;20711;-63
2023/02/20 04:24:46;;;;;;;9.23;7.17;;;6.70;99.90;;;-141.84;72.59;18952.22;4991110;28;20234;-63
2023/02/20 04:27:17;;;;;;;8.93;7.13;;;6.70;99.90;;;-141.84;72.37;18988.78;4990942;28;20422;-62
2023/02/20 04:29:45;;;;;;;9.47;7.17;;;6.70;99.90;;;-141.84;72.53;18978.63;4991375;28;20218;-62
2023/02/20 04:32:13;;;;;;;8.87;7.00;;;6.70;99.90;;;-141.84;72.83;18978.63;4990472;28;20299;-63
2023/02/20 04:34:41;;;;;;;10.90;7.67;;;6.70;99.90;;;-141.84;72.22;19005.03;5005726;28;20231;-63
2023/02/20 04:37:13;;;;;;;8.77;6.93;;;6.70;99.90;;;-141.84;72.18;18980.66;4999126;28;20238;-63
2023/02/20 04:39:41;;;;;;;8.63;6.60;;;6.70;99.90;;;-141.84;72.64;19011.13;4990891;28;20226;-63
2023/02/20 04:42:10;;;;;;;9.60;7.63;;;6.70;99.90;;;-141.84;73.29;18958.31;4990521;28;20269;-63
2023/02/20 04:44:41;;;;;;;11.17;8.03;;;6.70;99.90;;;-141.84;72.63;18998.94;4991251;28;20577;-63
2023/02/20 04:47:15;;;;;;;9.03;6.83;;;6.70;99.90;;;-141.84;73.57;18988.78;4990033;28;20260;-64
2023/02/20 04:49:44;;;;;;;8.83;7.17;;;6.70;99.90;;;-141.84;73.01;18990.81;4990198;28;20226;-63
2023/02/20 04:52:12;;;;;;;9.40;6.87;;;6.70;99.90;;;-141.84;72.91;19011.13;4990237;28;20250;-62
2023/02/20 04:54:40;;;;;;;9.33;8.03;;;6.80;99.90;;;-141.84;74.03;18972.53;4990108;28;20231;-63
2023/02/20 04:57:08;;;;;;;10.43;7.83;;;6.70;99.90;;;-141.84;74.72;18998.94;4990340;28;20232;-64
2023/02/20 04:59:36;;;;;;;10.53;8.17;;;6.70;99.90;;;-141.84;74.96;18978.63;4990626;28;20203;-64
2023/02/20 05:02:06;;;;;;;9.57;7.23;;;6.60;99.90;;;-141.84;75.19;18952.22;4990167;28;20231;-62
2023/02/20 05:04:37;;;;;;;7.77;6.10;;;6.60;99.90;;;-141.84;75.88;18944.09;4989953;28;20348;-63
2023/02/20 05:07:06;;;;;;;7.77;5.67;;;6.60;99.90;;;-141.84;75.77;18952.22;4989952;28;20223;-63
2023/02/20 05:09:34;;;;;;;7.13;5.47;;;6.60;99.90;;;-141.84;75.96;18966.44;4990021;28;20250;-63
2023/02/20 05:12:02;;;;;;;8.73;5.00;;;6.60;99.90;;;-141.84;76.41;18946.13;4990246;28;20218;-62
2023/02/20 05:14:30;;;;;;;7.33;5.73;;;6.60;99.90;;;-141.84;77.14;18952.22;4990322;28;20294;-62
2023/02/20 05:16:59;;;;;;;6.07;5.17;;;6.50;99.90;;;-141.84;77.28;18952.22;4989110;28;20245;-62
2023/02/20 05:19:28;;;;;;;8.60;5.77;;;6.50;99.90;;;-141.84;77.47;18923.78;4989665;28;20238;-63
2023/02/20 05:24:43;;;;;;;9.07;6.33;;;6.60;99.90;;;-141.84;76.79;18954.25;4989943;28;20235;-62
2023/02/20 05:27:13;;;;;;;7.97;5.97;;;6.60;99.90;;;-141.84;76.30;18954.25;4989611;28;20235;-64
2023/02/20 05:29:45;;;;;;;6.93;6.13;;;6.70;99.90;;;-141.84;76.05;18964.41;4989446;28;20679;-63
2023/02/20 05:32:15;;;;;;;7.40;5.80;;;6.70;99.90;;;-141.84;75.88;18954.25;4989501;28;20211;-63
2023/02/20 05:34:46;;;;;;;9.30;6.10;;;6.70;99.90;;;-141.84;76.13;18964.41;5005086;28;20235;-63
2023/02/20 05:37:17;;;;;;;7.00;5.40;;;6.70;99.90;;;-141.84;74.95;18968.47;4997373;28;20658;-62
2023/02/20 05:39:46;;;;;;;7.23;5.50;;;6.70;99.90;;;-141.84;74.82;18984.72;4990389;28;20235;-62
2023/02/20 05:42:16;;;;;;;7.93;6.27;;;6.70;99.90;;;-141.84;74.52;18968.47;4989410;28;20231;-62
2023/02/20 05:44:44;;;;;;;7.37;5.73;;;6.70;99.90;;;-141.84;73.64;19007.06;4990262;28;20200;-62
2023/02/20 05:47:13;;;;;;;6.43;5.40;;;6.70;99.90;;;-141.84;73.72;19009.09;5008520;28;20242;-63
2023/02/20 05:49:41;;;;;;;6.30;5.43;;;6.80;99.90;;;-141.84;73.38;18968.47;5008930;28;20230;-62
2023/02/20 05:52:12;;;;;;;6.07;5.27;;;6.80;99.90;;;-141.84;73.39;18990.81;4997884;28;20297;-63
2023/02/20 05:54:41;;;;;;;6.40;5.40;;;6.70;99.90;;;-141.84;73.06;18998.94;4989585;28;20224;-64
2023/02/20 05:57:12;;;;;;;8.57;5.67;;;6.70;99.90;;;-141.84;72.98;18984.72;4989357;28;20306;-63
2023/02/20 05:59:40;;;;;;;5.63;5.00;;;6.70;99.90;;;-141.84;72.50;19005.03;4990360;28;20190;-54
2023/02/20 06:02:08;;;;;;;8.17;5.47;;;6.70;99.90;;;-141.84;71.78;18996.91;4989266;28;20234;-52
2023/02/20 06:04:37;;;;;;;7.07;5.50;;;6.80;99.90;;;-141.84;71.55;19003.00;4989062;28;20866;-53
2023/02/20 06:07:09;;;;;;;5.97;5.37;;;6.80;99.90;;;-141.84;71.67;18996.91;4988971;28;20255;-55
2023/02/20 06:09:43;;;;;;;7.03;5.47;;;6.80;99.90;;;-141.84;72.57;18996.91;4988095;28;20234;-55
2023/02/20 06:12:12;;;;;;;6.07;4.73;;;6.70;99.90;;;-141.84;71.77;19049.75;4988221;28;20554;-54
2023/02/20 06:14:40;;;;;;;5.77;4.83;;;6.70;99.90;;;-141.84;71.11;19009.09;4990139;28;20199;-54
2023/02/20 06:17:08;;;;;;;6.93;5.00;;;6.70;99.90;;;-141.84;71.32;19019.28;4988913;28;20700;-54
2023/02/20 06:19:37;;;;;;;6.43;5.10;;;6.70;99.90;;;-141.84;71.18;19021.31;4989206;28;20241;-54
2023/02/20 06:22:05;;;;;;;6.80;4.23;;;6.70;99.90;;;-141.84;70.30;19027.41;4989093;28;20223;-53
2023/02/20 06:24:33;;;;;;;5.10;4.30;;;6.70;99.90;;;-141.84;70.26;19023.34;4989292;28;20242;-52
2023/02/20 06:27:03;;;;;;;6.07;4.97;;;6.70;99.90;;;-141.84;70.10;19059.91;4988349;28;20714;-54
2023/02/20 06:29:31;;;;;;;6.83;4.37;;;6.70;99.90;;;-141.84;69.71;19017.25;4988279;28;20220;-52
2023/02/20 06:32:00;;;;;;;5.33;3.97;;;6.80;99.90;;;-141.84;69.04;19066.00;4987424;28;20258;-54
2023/02/20 06:34:30;;;;;;;5.80;4.73;;;6.80;99.90;;;-141.84;69.27;19029.44;4988576;28;20234;-56
2023/02/20 06:37:01;;;;;;;5.77;4.37;;;6.80;99.90;;;-141.84;69.81;19031.47;4991492;28;20257;-54
2023/02/20 06:39:31;;;;;;;7.20;5.63;;;6.80;99.90;;;-141.84;69.30;19043.66;4991317;28;20737;-56
2023/02/20 06:41:59;;;;;;;6.63;5.10;;;6.80;99.90;;;-141.84;69.04;19066.00;4991610;28;20579;-52
2023/02/20 06:44:29;;;;;;;6.03;5.30;;;6.80;99.90;;;-141.84;69.43;19023.34;4993712;28;20203;-53
2023/02/20 06:46:57;;;;;;;5.77;5.13;;;6.80;99.90;;;-141.84;68.97;19055.84;4992583;28;20242;-51
2023/02/20 06:49:25;;;;;;;7.07;5.93;;;6.80;99.90;;;-141.84;68.82;19053.81;4992751;28;20278;-54
2023/02/20 06:51:55;;;;;;;7.90;5.70;;;6.80;99.90;;;-141.84;68.50;19076.16;4992985;28;20234;-50
2023/02/20 06:54:23;;;;;;;6.77;5.60;;;6.80;99.90;;;-141.84;67.94;19094.44;4992832;28;20315;-53
2023/02/20 06:56:51;;;;;;;6.50;5.90;;;6.90;99.90;;;-141.84;67.81;19078.19;4992818;28;20698;-55
2023/02/20 06:59:19;;;;;;;7.97;5.00;;;6.90;99.90;;;-141.84;67.69;19078.19;4993137;28;20600;-50
2023/02/20 07:01:49;;;;;;;8.77;5.53;;;7.00;99.90;;;-141.84;67.55;19100.53;4992501;28;21066;-57
2023/02/20 07:04:21;;;;;;;6.70;5.90;;;7.00;99.90;;;-141.84;67.90;19068.03;4992409;28;20266;-55
2023/02/20 07:06:49;;;;;;;8.27;6.27;;;7.00;99.90;;;-141.84;68.26;19086.31;4992444;28;20223;-54
2023/02/20 07:09:19;;;;;;;6.50;5.60;;;6.90;99.90;;;-141.84;68.25;19066.00;4992485;28;20646;-57
2023/02/20 07:11:49;;;;;;;8.10;5.53;;;7.00;99.90;;;-141.84;68.10;19049.75;4992747;28;20601;-54
2023/02/20 07:14:17;;;;;;;8.43;6.33;;;6.90;99.90;;;-141.84;68.64;19059.91;4992618;28;20215;-53
2023/02/20 07:16:45;;;;;;;10.63;6.47;;;6.90;99.90;;;-141.84;68.55;19063.97;4992010;28;20337;-53
2023/02/20 07:19:15;;;;;;;8.00;6.40;;;6.90;99.90;;;-141.84;68.90;19070.06;4991980;28;20230;-55
2023/02/20 07:21:43;;;;;;;8.30;5.83;;;6.90;99.90;;;-141.84;68.74;19074.13;4991140;28;20242;-55
2023/02/20 07:24:11;;;;;;;8.73;6.07;;;6.90;99.90;;;-141.84;68.92;19072.09;4991940;28;20657;-56
2023/02/20 07:26:39;;;;;;;7.87;6.13;;;6.90;99.90;;;-141.84;68.20;19049.75;4991817;28;20206;-54
2023/02/20 07:29:08;;;;;;;8.30;6.47;;;6.90;99.90;;;-141.84;69.14;19074.13;4991647;28;20726;-57
2023/02/20 07:31:37;;;;;;;7.63;6.23;;;6.90;99.90;;;-141.84;69.20;19057.88;4991720;28;20330;-54
2023/02/20 07:34:07;;;;;;;9.20;6.27;;;6.90;99.90;;;-141.84;68.17;19080.22;4991727;28;20224;-55
2023/02/20 07:36:36;;;;;;;9.07;6.17;;;7.00;99.90;;;-141.84;67.87;19068.03;4991480;28;20233;-57
2023/02/20 07:39:06;;;;;;;7.77;6.03;;;7.10;99.90;;;-141.84;67.47;19094.44;4991528;28;20473;-54
2023/02/20 07:41:35;;;;;;;6.97;6.27;;;7.20;99.90;;;-141.84;67.14;19118.84;4992205;28;20203;-53
2023/02/20 07:44:04;;;;;;;8.60;6.90;;;7.30;99.90;;;-141.84;67.03;19122.91;4991571;28;20256;-56
2023/02/20 07:46:33;;;;;;;9.93;6.00;;;7.30;99.90;;;-141.84;66.19;19141.19;4991348;28;20223;-55
2023/02/20 07:49:02;;;;;;;7.07;6.17;;;7.50;99.90;;;-141.84;65.83;19118.84;4991333;28;20239;-57
2023/02/20 07:51:31;;;;;;;6.83;5.80;;;7.60;99.90;;;-141.84;65.40;19147.28;4991666;28;20230;-54
2023/02/20 07:54:01;;;;;;;7.60;6.47;;;7.70;99.90;;;-141.84;65.02;19181.81;4991452;28;20692;-54
2023/02/20 07:56:30;;;;;;;7.80;6.30;;;7.80;99.90;;;-141.84;65.21;19179.78;4991866;28;20192;-55
2023/02/20 07:58:58;;;;;;;10.10;6.33;;;7.80;99.90;;;-141.84;64.88;19200.13;4991207;28;20231;-55
2023/02/20 08:01:28;;;;;;;7.23;6.10;;;7.80;99.90;;;-141.84;64.95;19187.91;4991448;28;20302;-53
2023/02/20 08:03:56;;;;;;;8.17;6.30;;;7.90;99.90;;;-141.84;65.00;19200.13;4991210;28;20228;-54
2023/02/20 08:06:24;;;;;;;8.03;6.33;;;7.90;99.90;;;-141.84;65.32;19179.78;4991348;28;20333;-55
2023/02/20 08:08:52;;;;;;;8.13;6.00;;;7.90;99.90;;;-141.84;64.78;19175.72;4991368;28;20203;-55
2023/02/20 08:11:23;;;;;;;7.77;6.07;;;7.90;99.90;;;-141.84;65.27;19192.00;4991727;28;20230;-53
2023/02/20 08:13:54;;;;;;;7.27;5.80;;;7.90;99.90;;;-141.84;64.63;19200.13;4991191;28;20281;-55
2023/02/20 08:16:22;;;;;;;9.63;6.33;;;8.00;99.90;;;-141.84;64.73;19194.03;4991213;28;20235;-53
2023/02/20 08:18:50;;;;;;;6.63;5.90;;;8.00;99.90;;;-141.84;64.81;19200.13;4990798;28;20227;-51
2023/02/20 08:21:18;;;;;;;7.03;5.67;;;8.00;99.90;;;-141.84;64.28;19232.63;4991110;28;20274;-53
2023/02/20 08:23:47;;;;;;;7.40;5.80;;;8.10;99.90;;;-141.84;64.60;19236.69;4991371;28;20211;-54
2023/02/20 08:26:15;;;;;;;9.23;6.60;;;8.10;99.90;;;-141.84;64.09;19232.63;5010729;28;20223;-53
2023/02/20 08:28:46;;;;;;;7.60;5.33;;;8.20;99.90;;;-141.84;64.12;19200.13;5010523;28;20241;-54
2023/02/20 08:31:14;;;;;;;5.97;4.93;;;8.20;99.90;;;-141.84;63.60;19230.59;5010701;28;20239;-54
2023/02/20 08:33:59;;;;;;;6.73;5.17;;;8.30;99.90;;;-141.84;64.06;19226.53;5010321;28;20238;-54
2023/02/20 08:36:27;;;;;;;5.33;4.67;;;8.20;99.90;;;-141.84;64.42;19234.66;5010602;28;20226;-55
2023/02/20 08:38:56;;;;;;;5.13;4.37;;;8.30;99.90;;;-141.84;64.56;19248.88;5010502;28;20217;-55
2023/02/20 08:41:24;;;;;;;5.63;4.93;;;8.20;99.90;;;-141.84;64.23;19259.03;5010824;28;20199;-53
2023/02/20 08:43:53;;;;;;;6.20;5.07;;;8.30;99.90;;;-141.84;64.29;19224.50;5010202;28;20222;-54
2023/02/20 08:46:22;;;;;;;5.63;4.70;;;8.30;99.90;;;-141.84;64.12;19250.91;5009929;28;20230;-52
2023/02/20 08:48:50;;;;;;;6.17;4.87;;;8.30;99.90;;;-141.84;64.15;19244.81;5009635;28;20600;-56
2023/02/20 08:51:21;;;;;;;5.57;4.80;;;8.40;99.90;;;-141.84;64.53;19246.84;5009967;28;20235;-53
2023/02/20 08:53:49;;;;;;;5.33;4.47;;;8.40;99.90;;;-141.84;63.94;19246.84;5009905;28;20198;-54
2023/02/20 08:56:19;;;;;;;4.43;3.93;;;8.50;99.90;;;-141.84;63.96;19242.78;5010105;28;20213;-57
2023/02/20 08:58:47;;;;;;;4.93;4.30;;;8.50;99.90;;;-141.84;63.47;19297.66;5009492;28;20268;-55
2023/02/20 09:01:17;;;;;;;4.70;3.97;;;8.60;99.90;;;-141.84;63.54;19283.44;5009674;28;20223;-54
2023/02/20 09:03:45;;;;;;;7.37;3.87;;;8.60;99.90;;;-141.84;63.31;19285.47;5009583;28;20315;-52
2023/02/20 09:06:13;;;;;;;4.27;3.67;;;8.70;99.90;;;-141.84;63.02;19289.53;5009664;28;20255;-50
2023/02/20 09:08:42;;;;;;;7.17;4.33;;;8.70;99.90;;;-141.84;63.56;19299.69;5009990;28;20672;-51
2023/02/20 09:11:10;;;;;;;4.20;3.30;;;8.70;99.90;;;-141.84;63.10;19326.09;5009393;28;20231;-53
2023/02/20 09:13:43;;;;;;;4.40;3.53;;;8.80;99.90;;;-141.84;62.45;19328.13;5009740;28;20226;-54
2023/02/20 09:16:12;;;;;;;3.57;3.13;;;8.90;99.90;;;-141.84;61.93;19344.41;5009492;28;20230;-54
2023/02/20 09:18:43;;;;;;;3.63;3.27;;;9.10;99.90;;;-141.84;62.11;19313.91;4996773;28;20227;-56
2023/02/20 09:21:15;;;;;;;4.20;3.33;;;9.10;99.90;;;-141.84;61.32;19330.16;5009617;28;20218;-53
2023/02/20 09:23:43;;;;;;;5.00;3.53;;;9.10;99.90;;;-141.84;61.62;19354.56;5009912;28;20188;-53
2023/02/20 09:26:12;;;;;;;3.60;3.10;;;9.10;99.90;;;-141.84;61.42;19350.50;5009388;28;20234;-54
2023/02/20 09:28:40;;;;;;;5.50;3.10;;;9.20;99.90;;;-141.84;61.99;19383.00;5009501;28;20611;-50
2023/02/20 09:31:09;;;;;;;3.77;3.20;;;9.20;99.90;;;-141.84;61.90;19368.78;5009228;28;20241;-57
2023/02/20 09:33:37;;;;;;;4.73;3.97;;;9.20;99.90;;;-141.84;62.03;19362.69;5009453;28;20230;-55
2023/02/20 09:36:08;;;;;;;5.87;3.60;;;9.20;99.90;;;-141.84;61.53;19374.88;5009281;28;20242;-55
2023/02/20 09:38:36;;;;;;;3.50;3.10;;;9.30;99.90;;;-141.84;60.42;19391.13;5010038;28;20198;-52
2023/02/20 09:41:06;;;;;;;3.80;3.07;;;9.30;99.90;;;-141.84;60.89;19395.19;5009267;28;20230;-54
2023/02/20 09:43:51;;;;;;;3.27;2.80;;;9.40;99.90;;;-141.84;60.20;19401.28;5009296;28;20226;-52
2023/02/20 09:46:22;;;;;;;4.57;3.07;;;9.40;99.90;;;-141.84;59.62;19409.41;5009216;28;20226;-54
2023/02/20 09:49:03;;;;;;;3.73;3.00;;;9.50;99.90;;;-141.84;59.86;19413.47;5008817;28;20583;-55
2023/02/20 09:51:40;;;;;;;4.27;2.70;;;9.50;99.90;;;-141.84;59.22;19421.63;5009012;28;20230;-56
2023/02/20 09:54:13;;;;;;;4.10;2.90;;;9.60;99.90;;;-141.84;59.53;19423.66;5009084;28;20234;-55
2023/02/20 09:56:46;;;;;;;4.23;2.27;;;9.60;99.90;;;-141.84;59.13;19460.22;5009667;28;20187;-52
2023/02/20 09:59:18;;;;;;;3.47;2.63;;;9.70;99.90;;;-141.84;58.90;19450.06;5009264;28;20210;-54
2023/02/20 10:02:00;;;;;;;3.43;2.50;;;9.80;99.90;;;-141.84;57.99;19431.78;5008757;28;20629;-55
2023/02/20 10:04:37;;;;;;;2.90;2.60;;;10.00;99.90;;;-141.84;58.30;19478.50;5009283;28;20230;-53
2023/02/20 10:07:20;;;;;;;3.80;2.50;;;10.00;99.90;;;-141.84;58.03;19484.59;5008955;28;20234;-55
2023/02/20 10:09:49;;;;;;;3.87;2.90;;;10.10;99.90;;;-141.84;57.23;19506.97;5010880;28;20222;-55
2023/02/20 10:12:29;;;;;;;3.07;2.27;;;10.30;99.90;;;-141.84;56.73;19559.81;5012843;28;20730;-56
2023/02/20 10:15:19;;;;;;;3.40;2.70;;;10.40;99.90;;;-141.84;56.87;19563.88;5013258;28;20191;-53
2023/02/20 10:17:59;;;;;;;4.87;2.60;;;10.50;99.90;;;-141.84;56.20;19578.09;5013112;28;20202;-53
2023/02/20 10:20:38;;;;;;;3.43;2.37;;;10.70;99.90;;;-141.84;55.75;19561.84;4993643;28;20211;-53
2023/02/20 10:23:23;;;;;;;5.27;2.50;;;10.70;99.90;;;-141.84;55.93;19594.34;5011985;28;20230;-53
2023/02/20 10:25:56;;;;;;;6.10;2.70;;;10.80;99.90;;;-141.84;55.99;19572.00;4995815;28;20291;-52
2023/02/20 10:28:26;;;;;;;6.80;2.20;;;10.80;99.90;;;-141.84;56.04;19600.44;4993121;28;20266;-52
2023/02/20 10:31:03;;;;;;;3.83;2.23;;;10.80;99.90;;;-141.84;56.18;19590.28;4993091;28;20712;-53
2023/02/20 10:33:40;;;;;;;6.03;2.40;;;10.80;99.90;;;-141.84;55.82;19545.56;4992776;28;20223;-55
2023/02/20 10:36:18;;;;;;;3.10;2.40;;;10.80;99.90;;;-141.84;56.49;19578.09;4993208;28;20229;-54
2023/02/20 10:38:54;;;;;;;3.83;2.27;;;10.60;99.90;;;-141.84;55.35;19594.34;4993455;28;20694;-50
2023/02/20 10:41:33;;;;;;;2.73;2.10;;;10.70;99.90;;;-141.84;55.75;19604.50;4993232;28;20215;-55
2023/02/20 10:44:11;;;;;;;5.30;2.20;;;10.80;99.90;;;-141.84;55.66;19628.91;5010747;28;20225;-52
2023/02/20 10:46:50;;;;;;;4.77;2.40;;;10.90;99.90;;;-141.84;54.70;19582.16;4997155;28;20729;-52
2023/02/20 10:49:27;;;;;;;3.57;2.10;;;10.90;99.90;;;-141.84;54.98;19641.09;4992525;28;20289;-54
2023/02/20 10:52:00;;;;;;;4.23;2.37;;;11.10;99.90;;;-141.84;54.41;19669.53;4992457;28;20745;-54
2023/02/20 10:54:37;;;;;;;2.33;2.13;;;11.20;99.90;;;-141.84;54.34;19693.94;4992523;28;20654;-52